createdAt,value
2017-11-11T00:01:03.486Z,97220.40
2017-11-11T00:03:29.610Z,97222.52
2017-11-11T00:05:55.771Z,97217.97
2017-11-11T00:08:21.980Z,97211.15
2017-11-11T00:10:48.068Z,97214.05
2017-11-11T00:13:14.293Z,97202.52
2017-11-11T00:15:40.361Z,97205.34
2017-11-11T00:18:06.454Z,97202.41
2017-11-11T00:20:32.601Z,97201.19
2017-11-11T00:22:58.642Z,97205.23
2017-11-11T00:25:25.054Z,97200.68
2017-11-11T00:27:51.152Z,97206.80
2017-11-11T00:30:17.347Z,97212.58
2017-11-11T00:32:43.535Z,97203.78
2017-11-11T00:35:09.706Z,97207.52
2017-11-11T00:37:35.778Z,97205.59
2017-11-11T00:40:02.215Z,97205.91
2017-11-11T00:42:28.316Z,97199.16
2017-11-11T00:44:54.414Z,97197.00
2017-11-11T00:47:20.561Z,97201.27
2017-11-11T00:49:46.819Z,97190.48
2017-11-11T00:52:13.048Z,97186.35
2017-11-11T00:54:39.354Z,97180.23
2017-11-11T00:57:05.669Z,97185.41
2017-11-11T00:59:31.888Z,97185.72
2017-11-11T01:01:58.071Z,97189.73
2017-11-11T01:04:24.504Z,97183.64
2017-11-11T01:06:50.537Z,97188.87
2017-11-11T01:09:16.735Z,97194.33
2017-11-11T01:11:42.921Z,97201.40
2017-11-11T01:14:09.238Z,97202.30
2017-11-11T01:16:35.751Z,97199.31
2017-11-11T01:19:01.893Z,97203.48
2017-11-11T01:21:28.081Z,97205.80
2017-11-11T01:23:54.413Z,97211.21
2017-11-11T01:26:20.644Z,97212.52
2017-11-11T01:28:46.742Z,97214.83
2017-11-11T01:31:12.802Z,97216.72
2017-11-11T01:33:38.852Z,97209.41
2017-11-11T01:36:04.953Z,97211.69
2017-11-11T01:38:31.036Z,97201.91
2017-11-11T01:40:57.377Z,97206.73
2017-11-11T01:43:23.450Z,97204.06
2017-11-11T01:45:49.648Z,97211.22
2017-11-11T01:48:16.311Z,97206.27
2017-11-11T01:50:42.385Z,97204.81
2017-11-11T01:53:08.661Z,97200.45
2017-11-11T01:55:35.161Z,97197.63
2017-11-11T01:58:01.442Z,97205.20
2017-11-11T02:00:27.638Z,97200.61
2017-11-11T02:02:53.890Z,97201.95
2017-11-11T02:05:20.066Z,97201.36
2017-11-11T02:07:46.231Z,97202.06
2017-11-11T02:10:12.580Z,97204.89
2017-11-11T02:12:38.714Z,97204.66
2017-11-11T02:15:04.888Z,97211.95
2017-11-11T02:17:31.550Z,97206.69
2017-11-11T02:19:57.893Z,97213.55
2017-11-11T02:22:24.096Z,97207.55
2017-11-11T02:24:50.536Z,97213.79
2017-11-11T02:27:16.712Z,97210.64
2017-11-11T02:29:42.834Z,97204.59
2017-11-11T02:32:09.434Z,97212.41
2017-11-11T02:34:35.556Z,97209.50
2017-11-11T02:37:01.921Z,97218.32
2017-11-11T02:39:28.007Z,97212.51
2017-11-11T02:41:54.304Z,97207.67
2017-11-11T02:44:20.365Z,97206.34
2017-11-11T02:46:46.678Z,97210.01
2017-11-11T02:49:12.839Z,97209.74
2017-11-11T02:51:39.112Z,97207.58
2017-11-11T02:54:05.267Z,97209.72
2017-11-11T02:56:31.376Z,97212.61
2017-11-11T02:58:57.631Z,97210.64
2017-11-11T03:01:23.828Z,97208.64
2017-11-11T03:03:50.017Z,97204.99
2017-11-11T03:06:16.278Z,97204.55
2017-11-11T03:08:42.481Z,97207.52
2017-11-11T03:11:08.674Z,97202.37
2017-11-11T03:13:34.867Z,97205.08
2017-11-11T03:16:01.317Z,97211.03
2017-11-11T03:18:27.652Z,97201.53
2017-11-11T03:20:53.964Z,97196.78
2017-11-11T03:23:20.173Z,97192.85
2017-11-11T03:25:46.502Z,97194.26
2017-11-11T03:28:12.811Z,97183.20
2017-11-11T03:30:39.017Z,97179.20
2017-11-11T03:33:05.066Z,97180.97
2017-11-11T03:35:31.331Z,97186.30
2017-11-11T03:37:57.608Z,97189.72
2017-11-11T03:40:23.637Z,97198.23
2017-11-11T03:42:49.703Z,97205.34
2017-11-11T03:45:15.992Z,97209.38
2017-11-11T03:47:42.085Z,97206.31
2017-11-11T03:50:08.242Z,97206.17
2017-11-11T03:52:34.558Z,97197.24
2017-11-11T03:55:00.670Z,97195.16
2017-11-11T03:57:26.849Z,97194.73
2017-11-11T03:59:53.208Z,97197.94
2017-11-11T04:02:19.399Z,97188.83
2017-11-11T04:04:45.643Z,97189.52
2017-11-11T04:07:11.766Z,97183.33
2017-11-11T04:09:37.944Z,97185.33
2017-11-11T04:12:04.158Z,97181.47
2017-11-11T04:14:30.296Z,97174.02
2017-11-11T04:16:56.523Z,97172.13
2017-11-11T04:19:22.632Z,97173.65
2017-11-11T04:21:48.851Z,97171.05
2017-11-11T04:24:15.107Z,97169.41
2017-11-11T04:26:41.365Z,97160.77
2017-11-11T04:29:07.691Z,97164.45
2017-11-11T04:31:33.881Z,97172.45
2017-11-11T04:33:59.977Z,97168.95
2017-11-11T04:36:26.924Z,97163.48
2017-11-11T04:38:53.089Z,97166.29
2017-11-11T04:41:19.150Z,97166.33
2017-11-11T04:43:45.206Z,97170.27
2017-11-11T04:46:11.277Z,97181.00
2017-11-11T04:48:37.435Z,97180.50
2017-11-11T04:51:03.510Z,97184.89
2017-11-11T04:53:29.845Z,97179.59
2017-11-11T04:55:56.184Z,97169.02
2017-11-11T04:58:22.598Z,97164.66
2017-11-11T05:00:48.888Z,97167.98
2017-11-11T05:03:15.150Z,97167.27
2017-11-11T05:05:41.398Z,97174.04
2017-11-11T05:08:07.581Z,97175.19
2017-11-11T05:10:33.890Z,97174.91
2017-11-11T05:13:00.057Z,97178.50
2017-11-11T05:15:26.384Z,97168.28
2017-11-11T05:17:52.447Z,97162.66
2017-11-11T05:20:18.556Z,97167.06
2017-11-11T05:22:44.621Z,97177.17
2017-11-11T05:25:10.767Z,97175.13
2017-11-11T05:27:36.883Z,97171.63
2017-11-11T05:30:03.067Z,97168.22
2017-11-11T05:32:29.350Z,97156.95
2017-11-11T05:34:55.629Z,97151.53
2017-11-11T05:37:21.719Z,97149.52
2017-11-11T05:39:47.815Z,97144.06
2017-11-11T05:42:14.385Z,97136.16
2017-11-11T05:44:40.499Z,97126.92
2017-11-11T05:47:06.681Z,97129.13
2017-11-11T05:49:32.721Z,97128.20
2017-11-11T05:51:58.793Z,97119.79
2017-11-11T05:54:25.025Z,97118.75
2017-11-11T05:56:51.366Z,97124.91
2017-11-11T05:59:17.445Z,97145.56
2017-11-11T06:01:43.669Z,97149.67
2017-11-11T06:04:09.969Z,97152.77
2017-11-11T06:06:36.165Z,97156.03
2017-11-11T06:09:02.313Z,97157.47
2017-11-11T06:11:28.387Z,97160.38
2017-11-11T06:13:54.891Z,97166.03
2017-11-11T06:16:21.092Z,97167.11
2017-11-11T06:18:47.194Z,97165.84
2017-11-11T06:21:13.421Z,97160.16
2017-11-11T06:23:39.601Z,97161.97
2017-11-11T06:26:06.402Z,97155.45
2017-11-11T06:28:32.516Z,97143.69
2017-11-11T06:30:58.633Z,97149.66
2017-11-11T06:39:51.787Z,97156.58
2017-11-11T06:42:21.258Z,97153.23
2017-11-11T06:44:47.444Z,97155.78
2017-11-11T06:47:16.820Z,97157.48
2017-11-11T06:49:49.503Z,97164.56
2017-11-11T06:52:31.995Z,97162.30
2017-11-11T06:55:10.718Z,97148.98
2017-11-11T06:57:36.845Z,97157.34
2017-11-11T07:00:03.106Z,97163.52
2017-11-11T07:02:29.881Z,97168.73
2017-11-11T07:04:56.389Z,97168.55
2017-11-11T07:07:22.458Z,97168.48
2017-11-11T07:09:49.101Z,97166.75
2017-11-11T07:12:15.243Z,97160.45
2017-11-11T07:14:41.390Z,97164.72
2017-11-11T07:17:07.613Z,97155.92
2017-11-11T07:19:34.092Z,97143.52
2017-11-11T07:22:00.280Z,97142.30
2017-11-11T07:24:26.350Z,97137.62
2017-11-11T07:26:52.890Z,97132.34
2017-11-11T07:29:18.964Z,97131.58
2017-11-11T07:31:45.197Z,97124.05
2017-11-11T07:34:11.674Z,97119.63
2017-11-11T07:36:37.898Z,97118.09
2017-11-11T07:39:04.285Z,97117.96
2017-11-11T07:41:30.511Z,97128.68
2017-11-11T07:43:56.756Z,97139.39
2017-11-11T07:46:22.772Z,97123.05
2017-11-11T07:48:49.105Z,97126.89
2017-11-11T07:51:15.788Z,97130.88
2017-11-11T07:53:42.010Z,97130.48
2017-11-11T07:56:08.194Z,97135.15
2017-11-11T07:58:34.445Z,97125.99
2017-11-11T08:01:00.815Z,97125.83
2017-11-11T08:03:27.333Z,97128.42
2017-11-11T08:05:55.191Z,97120.78
2017-11-11T08:08:21.586Z,97112.36
2017-11-11T08:10:47.785Z,97111.84
2017-11-11T08:13:13.986Z,97114.83
2017-11-11T08:15:40.275Z,97114.44
2017-11-11T08:18:06.529Z,97111.53
2017-11-11T08:20:32.929Z,97117.17
2017-11-11T08:22:59.001Z,97113.71
2017-11-11T08:25:25.636Z,97095.98
2017-11-11T08:27:51.737Z,97095.91
2017-11-11T08:30:17.795Z,97094.89
2017-11-11T08:32:44.151Z,97099.89
2017-11-11T08:35:10.147Z,97091.72
2017-11-11T08:37:37.440Z,97092.53
2017-11-11T08:40:03.728Z,97079.12
2017-11-11T08:42:29.888Z,97083.84
2017-11-11T08:44:55.957Z,97083.41
2017-11-11T08:47:22.195Z,97070.73
2017-11-11T08:49:48.303Z,97078.36
2017-11-11T08:52:14.435Z,97075.13
2017-11-11T08:54:40.786Z,97074.34
2017-11-11T08:57:07.046Z,97066.32
2017-11-11T08:59:33.265Z,97068.35
2017-11-11T09:01:59.578Z,97068.05
2017-11-11T09:04:25.786Z,97060.18
2017-11-11T09:06:52.022Z,97056.94
2017-11-11T09:09:18.299Z,97051.58
2017-11-11T09:11:44.393Z,97049.04
2017-11-11T09:14:10.748Z,97047.56
2017-11-11T09:16:36.903Z,97037.22
2017-11-11T09:19:03.289Z,97032.58
2017-11-11T09:21:29.522Z,97033.11
2017-11-11T09:23:56.386Z,97026.55
2017-11-11T09:26:23.847Z,97016.04
2017-11-11T09:28:50.023Z,97011.01
2017-11-11T09:31:16.450Z,97010.95
2017-11-11T09:33:42.578Z,96998.27
2017-11-11T09:36:08.892Z,97001.52
2017-11-11T09:38:35.339Z,96990.92
2017-11-11T09:41:01.361Z,96994.72
2017-11-11T09:43:27.489Z,96997.18
2017-11-11T09:45:53.802Z,96994.61
2017-11-11T09:48:20.062Z,96992.13
2017-11-11T09:50:46.181Z,96987.73
2017-11-11T09:53:12.488Z,96981.42
2017-11-11T09:55:38.643Z,96983.09
2017-11-11T09:58:04.750Z,96983.62
2017-11-11T10:00:31.508Z,96973.92
2017-11-11T10:02:57.765Z,96977.09
2017-11-11T10:05:23.840Z,96977.39
2017-11-11T10:07:50.110Z,96971.52
2017-11-11T10:10:16.138Z,96970.23
2017-11-11T10:12:42.206Z,96963.75
2017-11-11T10:15:08.417Z,96967.89
2017-11-11T10:17:34.509Z,96960.27
2017-11-11T10:20:00.631Z,96951.86
2017-11-11T10:22:26.718Z,96950.27
2017-11-11T10:24:52.767Z,96944.52
2017-11-11T10:27:18.969Z,96951.03
2017-11-11T10:29:46.216Z,96956.11
2017-11-11T10:32:12.420Z,96942.48
2017-11-11T10:34:38.598Z,96942.73
2017-11-11T10:37:04.928Z,96940.91
2017-11-11T10:39:31.099Z,96941.05
2017-11-11T10:41:57.260Z,96932.77
2017-11-11T10:44:23.597Z,96930.39
2017-11-11T10:46:49.952Z,96930.89
2017-11-11T10:49:16.447Z,96931.22
2017-11-11T10:51:42.633Z,96919.05
2017-11-11T10:54:08.725Z,96922.80
2017-11-11T10:56:34.939Z,96925.88
2017-11-11T10:59:01.118Z,96914.37
2017-11-11T11:01:27.376Z,96903.48
2017-11-11T11:03:53.486Z,96902.47
2017-11-11T11:06:19.985Z,96892.69
2017-11-11T11:08:46.021Z,96883.66
2017-11-11T11:11:12.113Z,96870.69
2017-11-11T11:13:38.324Z,96862.97
2017-11-11T11:16:04.528Z,96859.45
2017-11-11T11:18:30.688Z,96858.99
2017-11-11T11:20:56.808Z,96860.33
2017-11-11T11:23:23.019Z,96851.84
2017-11-11T11:25:49.115Z,96855.04
2017-11-11T11:28:15.294Z,96855.47
2017-11-11T11:30:41.604Z,96852.14
2017-11-11T11:33:07.697Z,96856.17
2017-11-11T11:35:33.870Z,96847.06
2017-11-11T11:38:00.235Z,96849.41
2017-11-11T11:40:26.345Z,96833.11
2017-11-11T11:42:52.616Z,96838.40
2017-11-11T11:45:18.822Z,96810.73
2017-11-11T11:47:44.938Z,96828.61
2017-11-11T11:50:11.899Z,96825.13
2017-11-11T11:52:38.017Z,96828.69
2017-11-11T11:55:04.342Z,96826.88
2017-11-11T11:57:30.618Z,96820.70
2017-11-11T11:59:56.895Z,96821.52
2017-11-11T12:02:23.072Z,96815.14
2017-11-11T12:04:49.233Z,96815.30
2017-11-11T12:07:15.369Z,96810.27
2017-11-11T12:09:41.571Z,96802.52
2017-11-11T12:12:07.819Z,96795.37
2017-11-11T12:14:34.894Z,96806.20
2017-11-11T12:17:01.179Z,96795.22
2017-11-11T12:19:27.322Z,96789.15
2017-11-11T12:21:53.392Z,96775.94
2017-11-11T12:24:19.451Z,96788.12
2017-11-11T12:26:46.012Z,96791.75
2017-11-11T12:29:12.062Z,96785.20
2017-11-11T12:31:38.204Z,96791.11
2017-11-11T12:34:04.335Z,96778.38
2017-11-11T12:36:30.441Z,96769.41
2017-11-11T12:38:56.629Z,96776.04
2017-11-11T12:41:23.183Z,96771.94
2017-11-11T12:43:49.378Z,96748.17
2017-11-11T12:46:16.748Z,96742.77
2017-11-11T12:48:42.929Z,96747.53
2017-11-11T12:51:09.185Z,96760.56
2017-11-11T12:53:35.532Z,96755.56
2017-11-11T12:56:01.656Z,96748.34
2017-11-11T12:58:28.007Z,96752.99
2017-11-11T13:00:54.314Z,96750.06
2017-11-11T13:03:20.727Z,96744.71
2017-11-11T13:05:46.884Z,96732.73
2017-11-11T13:08:12.923Z,96737.17
2017-11-11T13:10:39.425Z,96723.47
2017-11-11T13:13:05.762Z,96731.58
2017-11-11T13:15:31.958Z,96725.68
2017-11-11T13:17:58.166Z,96719.75
2017-11-11T13:20:24.344Z,96725.02
2017-11-11T13:22:50.577Z,96716.91
2017-11-11T13:25:16.713Z,96714.22
2017-11-11T13:27:42.876Z,96707.55
2017-11-11T13:30:09.155Z,96703.59
2017-11-11T13:32:35.446Z,96693.41
2017-11-11T13:35:01.707Z,96702.58
2017-11-11T13:37:28.102Z,96702.02
2017-11-11T13:39:54.251Z,96699.34
2017-11-11T13:42:20.461Z,96695.08
2017-11-11T13:44:46.697Z,96693.41
2017-11-11T13:47:13.244Z,96687.08
2017-11-11T13:49:39.451Z,96689.23
2017-11-11T13:52:05.512Z,96675.28
2017-11-11T13:54:31.688Z,96676.84
2017-11-11T13:56:57.821Z,96663.15
2017-11-11T13:59:24.023Z,96671.43
2017-11-11T14:01:50.326Z,96661.27
2017-11-11T14:04:17.909Z,96661.88
2017-11-11T14:06:44.778Z,96658.42
2017-11-11T14:09:10.994Z,96663.94
2017-11-11T14:11:37.312Z,96661.05
2017-11-11T14:14:03.595Z,96658.21
2017-11-11T14:16:29.732Z,96652.31
2017-11-11T14:18:55.963Z,96666.52
2017-11-11T14:21:22.121Z,96651.62
2017-11-11T14:23:48.552Z,96652.95
2017-11-11T14:26:14.724Z,96661.88
2017-11-11T14:28:41.842Z,96654.63
2017-11-11T14:31:08.377Z,96649.02
2017-11-11T14:33:34.549Z,96652.95
2017-11-11T14:36:00.902Z,96656.39
2017-11-11T14:38:27.236Z,96653.23
2017-11-11T14:40:53.523Z,96664.05
2017-11-11T14:43:19.858Z,96670.30
2017-11-11T14:45:46.438Z,96664.33
2017-11-11T14:48:12.645Z,96661.26
2017-11-11T14:50:38.775Z,96661.31
2017-11-11T14:53:04.936Z,96669.53
2017-11-11T14:55:31.223Z,96659.14
2017-11-11T14:57:57.484Z,96666.84
2017-11-11T15:00:23.854Z,96654.27
2017-11-11T15:02:49.960Z,96648.30
2017-11-11T15:05:16.355Z,96646.70
2017-11-11T15:07:42.525Z,96645.50
2017-11-11T15:10:08.672Z,96649.16
2017-11-11T15:12:34.857Z,96647.95
2017-11-11T15:15:00.949Z,96656.05
2017-11-11T15:17:27.277Z,96644.73
2017-11-11T15:19:53.557Z,96637.06
2017-11-11T15:22:19.770Z,96632.71
2017-11-11T15:24:45.870Z,96638.06
2017-11-11T15:27:12.167Z,96628.93
2017-11-11T15:29:38.551Z,96629.92
2017-11-11T15:32:04.853Z,96631.81
2017-11-11T15:34:31.040Z,96632.52
2017-11-11T15:36:57.191Z,96616.23
2017-11-11T15:39:23.374Z,96615.80
2017-11-11T15:41:49.649Z,96613.25
2017-11-11T15:44:15.790Z,96606.80
2017-11-11T15:46:41.999Z,96612.34
2017-11-11T15:49:08.207Z,96609.97
2017-11-11T15:51:34.385Z,96618.81
2017-11-11T15:54:00.653Z,96621.05
2017-11-11T15:56:26.945Z,96611.13
2017-11-11T15:58:53.185Z,96596.79
2017-11-11T16:01:19.340Z,96594.28
2017-11-11T16:03:45.738Z,96589.42
2017-11-11T16:06:12.250Z,96587.60
2017-11-11T16:08:38.400Z,96581.27
2017-11-11T16:11:04.560Z,96585.31
2017-11-11T16:13:30.710Z,96590.31
2017-11-11T16:15:56.893Z,96579.97
2017-11-11T16:18:23.100Z,96584.17
2017-11-11T16:20:50.997Z,96579.26
2017-11-11T16:23:17.248Z,96585.03
2017-11-11T16:25:44.268Z,96588.89
2017-11-11T16:28:10.570Z,96588.95
2017-11-11T16:30:36.885Z,96580.38
2017-11-11T16:33:03.002Z,96582.98
2017-11-11T16:35:29.435Z,96575.58
2017-11-11T16:37:55.706Z,96576.01
2017-11-11T16:40:22.578Z,96565.78
2017-11-11T16:42:49.156Z,96577.52
2017-11-11T16:45:15.397Z,96570.84
2017-11-11T16:47:41.482Z,96569.98
2017-11-11T16:50:08.002Z,96572.17
2017-11-11T16:52:34.088Z,96558.60
2017-11-11T16:55:00.355Z,96568.77
2017-11-11T16:57:26.522Z,96566.25
2017-11-11T16:59:52.646Z,96566.45
2017-11-11T17:02:18.906Z,96562.84
2017-11-11T17:04:45.179Z,96566.52
2017-11-11T17:07:11.436Z,96562.80
2017-11-11T17:09:37.884Z,96568.66
2017-11-11T17:12:04.184Z,96556.36
2017-11-11T17:14:30.267Z,96559.28
2017-11-11T17:16:56.336Z,96564.61
2017-11-11T17:19:22.567Z,96558.38
2017-11-11T17:21:48.639Z,96554.30
2017-11-11T17:24:14.870Z,96557.83
2017-11-11T17:26:41.062Z,96558.52
2017-11-11T17:29:07.150Z,96567.84
2017-11-11T17:31:33.942Z,96554.00
2017-11-11T17:34:00.315Z,96551.92
2017-11-11T17:36:28.615Z,96553.03
2017-11-11T17:38:54.709Z,96532.02
2017-11-11T17:41:22.228Z,96545.24
2017-11-11T17:43:48.456Z,96550.91
2017-11-11T17:46:14.601Z,96551.23
2017-11-11T17:48:40.745Z,96546.58
2017-11-11T17:51:06.855Z,96549.67
2017-11-11T17:53:33.072Z,96549.11
2017-11-11T17:55:59.403Z,96559.27
2017-11-11T17:58:25.567Z,96548.30
2017-11-11T18:00:51.990Z,96540.11
2017-11-11T18:03:19.255Z,96541.95
2017-11-11T18:05:45.448Z,96545.45
2017-11-11T18:08:11.552Z,96540.33
2017-11-11T18:10:37.826Z,96545.84
2017-11-11T18:13:04.179Z,96540.56
2017-11-11T18:15:30.342Z,96547.50
2017-11-11T18:17:56.410Z,96539.83
2017-11-11T18:20:22.575Z,96540.91
2017-11-11T18:22:48.701Z,96545.94
2017-11-11T18:25:14.990Z,96543.47
2017-11-11T18:27:41.129Z,96540.25
2017-11-11T18:30:07.325Z,96532.09
2017-11-11T18:32:33.442Z,96547.73
2017-11-11T18:34:59.473Z,96547.91
2017-11-11T18:37:25.784Z,96536.78
2017-11-11T18:39:51.920Z,96518.62
2017-11-11T18:42:18.137Z,96528.91
2017-11-11T18:44:45.397Z,96533.20
2017-11-11T18:47:11.539Z,96523.16
2017-11-11T18:49:37.700Z,96528.16
2017-11-11T18:52:03.986Z,96526.37
2017-11-11T18:54:30.403Z,96525.67
2017-11-11T18:57:02.731Z,96530.33
2017-11-11T18:59:28.939Z,96526.03
2017-11-11T19:01:55.179Z,96525.78
2017-11-11T19:04:21.331Z,96524.42
2017-11-11T19:06:47.389Z,96525.04
2017-11-11T19:09:13.851Z,96525.55
2017-11-11T19:11:41.022Z,96525.92
2017-11-11T19:14:07.272Z,96518.81
2017-11-11T19:16:33.679Z,96518.16
2017-11-11T19:18:59.838Z,96512.41
2017-11-11T19:21:26.359Z,96517.36
2017-11-11T19:23:52.693Z,96521.77
2017-11-11T19:26:19.534Z,96514.75
2017-11-11T19:28:45.760Z,96516.02
2017-11-11T19:31:12.322Z,96516.52
2017-11-11T19:33:38.726Z,96517.30
2017-11-11T19:36:04.912Z,96514.91
2017-11-11T19:38:31.274Z,96516.38
2017-11-11T19:40:57.515Z,96514.12
2017-11-11T19:43:23.618Z,96520.98
2017-11-11T19:45:49.908Z,96512.67
2017-11-11T19:48:16.110Z,96522.68
2017-11-11T19:50:42.412Z,96521.77
2017-11-11T19:53:08.662Z,96514.44
2017-11-11T19:55:34.837Z,96518.90
2017-11-11T19:58:01.450Z,96518.33
2017-11-11T20:00:27.761Z,96512.36
2017-11-11T20:02:53.967Z,96516.54
2017-11-11T20:05:20.116Z,96516.72
2017-11-11T20:07:46.773Z,96508.35
2017-11-11T20:10:12.941Z,96515.29
2017-11-11T20:12:39.055Z,96508.35
2017-11-11T20:15:05.733Z,96510.87
2017-11-11T20:17:31.951Z,96513.64
2017-11-11T20:19:58.020Z,96510.20
2017-11-11T20:22:24.678Z,96511.02
2017-11-11T20:24:51.153Z,96506.53
2017-11-11T20:27:17.513Z,96501.89
2017-11-11T20:29:43.782Z,96513.16
2017-11-11T20:32:10.124Z,96511.42
2017-11-11T20:34:36.304Z,96518.59
2017-11-11T20:37:02.489Z,96512.98
2017-11-11T20:39:28.733Z,96504.59
2017-11-11T20:41:55.008Z,96502.75
2017-11-11T20:44:21.309Z,96506.53
2017-11-11T20:46:47.635Z,96503.66
2017-11-11T20:49:13.861Z,96506.08
2017-11-11T20:51:40.210Z,96511.98
2017-11-11T20:54:06.647Z,96501.09
2017-11-11T20:56:32.819Z,96503.34
2017-11-11T20:58:59.396Z,96503.25
2017-11-11T21:01:25.665Z,96501.50
2017-11-11T21:03:51.781Z,96504.23
2017-11-11T21:06:18.502Z,96499.22
2017-11-11T21:08:44.604Z,96502.18
2017-11-11T21:11:10.676Z,96509.63
2017-11-11T21:13:37.260Z,96512.39
2017-11-11T21:16:03.495Z,96505.77
2017-11-11T21:18:30.541Z,96502.95
2017-11-11T21:20:56.951Z,96505.39
2017-11-11T21:23:23.166Z,96512.84
2017-11-11T21:25:49.346Z,96506.02
2017-11-11T21:28:15.592Z,96512.05
2017-11-11T21:30:41.831Z,96496.78
2017-11-11T21:33:08.090Z,96506.61
2017-11-11T21:35:34.185Z,96499.19
2017-11-11T21:38:00.255Z,96497.42
2017-11-11T21:40:26.490Z,96499.70
2017-11-11T21:42:52.966Z,96500.02
2017-11-11T21:45:19.083Z,96489.47
2017-11-11T21:47:45.157Z,96495.78
2017-11-11T21:50:11.233Z,96491.23
2017-11-11T21:52:38.262Z,96489.89
2017-11-11T21:55:04.406Z,96488.41
2017-11-11T21:57:30.587Z,96478.48
2017-11-11T21:59:56.795Z,96480.45
2017-11-11T22:02:23.986Z,96476.07
2017-11-11T22:04:50.135Z,96481.08
2017-11-11T22:07:16.257Z,96474.30
2017-11-11T22:09:42.320Z,96475.36
2017-11-11T22:12:09.202Z,96477.35
2017-11-11T22:14:35.271Z,96483.66
2017-11-11T22:17:01.472Z,96471.83
2017-11-11T22:19:27.546Z,96465.57
2017-11-11T22:21:53.657Z,96465.86
2017-11-11T22:24:19.706Z,96469.02
2017-11-11T22:26:45.974Z,96459.41
2017-11-11T22:29:12.082Z,96457.13
2017-11-11T22:31:38.223Z,96457.09
2017-11-11T22:34:04.286Z,96459.00
2017-11-11T22:36:30.509Z,96450.21
2017-11-11T22:38:56.545Z,96439.75
2017-11-11T22:41:22.766Z,96440.69
2017-11-11T22:43:48.922Z,96440.17
2017-11-11T22:46:15.004Z,96442.84
2017-11-11T22:48:41.112Z,96442.37
2017-11-11T22:51:07.299Z,96439.46
2017-11-11T22:53:33.424Z,96438.80
2017-11-11T22:55:59.639Z,96445.15
2017-11-11T22:58:25.771Z,96434.80
2017-11-11T23:00:51.966Z,96442.92
2017-11-11T23:03:18.291Z,96433.99
2017-11-11T23:05:44.413Z,96442.55
2017-11-11T23:08:10.506Z,96442.63
2017-11-11T23:10:36.580Z,96438.42
2017-11-11T23:13:02.650Z,96442.63
2017-11-11T23:15:28.781Z,96441.31
2017-11-11T23:17:54.871Z,96432.84
2017-11-11T23:20:20.952Z,96432.84
2017-11-11T23:22:47.050Z,96436.09
2017-11-11T23:25:13.579Z,96437.18
2017-11-11T23:27:39.656Z,96429.84
2017-11-11T23:30:05.864Z,96433.13
2017-11-11T23:32:32.015Z,96442.55
2017-11-11T23:34:58.337Z,96435.52
2017-11-11T23:37:24.406Z,96426.75
2017-11-11T23:39:50.594Z,96425.95
2017-11-11T23:42:16.656Z,96431.81
2017-11-11T23:44:42.733Z,96430.09
2017-11-11T23:47:09.023Z,96421.05
2017-11-11T23:49:35.144Z,96424.77
2017-11-11T23:52:01.342Z,96416.98
2017-11-11T23:54:27.430Z,96415.08
2017-11-11T23:56:53.524Z,96414.37
2017-11-11T23:59:19.661Z,96404.54
